New Bedford, MA

1:58 AM EDT on September 05, 2015 (GMT -0400)
Acushnet MA - Acushnet Emergency Management | | Change Station
CLOSE
Current Station
Personal Weather Station
Location: Acushnet, MA
Elevation: 55 ft
Nearby Weather Stations

Elev 55 ft 41.68 °N, 70.91 °W | Updated 7 minutes ago

Clear
Clear
57.8 °F
Feels Like 57.8 °F
N
1.0
Wind Variable Wind from NNW
Gusts 3.0 mph

Today
High -- | Low -- °F
--% Chance of Precip.
Yesterday
High -- | Low -- °F
Precip. -- in
6:13 AM 7:10 PM
Waning Gibbous, 52% visible
Pressure 30.23 in
Visibility 5.0 miles
Clouds Clear
Dew Point 56 °F
Humidity 95%
Rainfall 0.00 in
Snow Depth Not available.
UV 0 out of 12
Pollen 7.80 out of 12
Air Quality Not available.
Flu Activity Not available.
METAR KEWB 050553Z AUTO 35003KT 5SM BR CLR 11/11 A3023 RMK AO2 SLP236 T01110111 10183 20111 58002
Pressure 30.23 in
Visibility 5.0 miles
Clouds Clear
Dew Point 56 °F
Humidity 95%
Rainfall 0.00 in
Snow Depth Not available.
UV 0 out of 12
Pollen 7.80 out of 12
Air Quality Not available.
Flu Activity Not available.
METAR KEWB 050553Z AUTO 35003KT 5SM BR CLR 11/11 A3023 RMK AO2 SLP236 T01110111 10183 20111 58002

10-Day Weather Forecast

×

Almanac

Astronomy

Sep. 05, 2015 Rise Set
Actual Time
Civil Twilight
Nautical Twilight
Astronomical Twilight
Moon
Length of Visible Light
Length of Day
Tomorrow will be .
, % of the Moon is Illuminated

Today's Extremes

State Highs State Lows

Community

WunderPhotos

Upload Photos

1,852,428 photos uploaded!

WunderBlogs® & News

Nearby

Air Quality

  Air Quality AQ Index Pollutant
Not available.

Snow Depth

Station Depth Elevation

Earthquake Activity

City Distance Mag. Time & Date
Minimum magnitude displayed is 2.5.

Coastal Water Temperatures

Place Temperature

Stations

Nearby Weather Stations

Station Location Temp. Windchill Dew Point Humidity Wind Precip. Elev Updated Type